メインページ
METAR-TAF:

METAR-TAF

空港 :

North Battleford, サスカチュワン州, カナダ

緯度: 52-46N, 経度: 108-15W, 海抜: 548m

現時点の気象観測

当レポートは55分前の10:00(UTC)に作成
南/南東の風 2kt
気温 11°C
湿度 94%
気圧 1016 hPa
視程: 14.5km
晴天

METAR: CYQW 051000Z AUTO 16002KT 9SM CLR 11/10 A3000 RMK SLP164

時間: 04:55 (10:55 UTC)

予報

当レポートは5時間17分前の05:38(UTC)に作成
予報は05日の 06時(UTC)から 05日の 18時(UTC)まで有効
変向風 3kt
視程: 10km
晴天
05日の 14時(UTC)から 05日の 16時(UTC)まで徐々に
西の風 6kt

TAF: CYQW 050538Z 0506/0518 VRB03KT P6SM SKC BECMG 0514/0516 27006KT RMK FCST BASED ON AUTO OBS. NXT FCST BY 051200Z

4,000以上の空港の気象観測と天気予報(METAR報とTAF報)

利用可能な観測所は地図上に黄色い丸と赤い丸で示す。

丸の上にカーソルを重ねると観測所名を参照できる。

次にクリックすると気象観測と天気予報を参照できる。

マップの切り替え:黒色「×」印の緑ボタンをクリックして拡大、「-」印の緑ボタンをクリックして縮小、緑色の三角印をクリックして隣りの地図に切り替え


METAR-TAF: